• Join FlightAware (Why Join?)
  • Login
  • US Flag 
07:11AM EDT


 

Airport Tracker/Info


-or-


 

Live Flight TrackerFlight Track Log ✈ CES5695 ✈ 21-May-2013 ✈ ZBAA / PEK - ZHLY / LYA

Flight Track Log - Related Links

Times and Time Zones

All times are in EDT time to prevent confusion due to time zone crossing. See the CES5695 flight status page for this flight to view local times or setup timezone preferences in your user account.

Time Position Orientation Groundspeed Altitude Reporting Facility
EDT Latitude Longitude Course Direction KTS MPH feet Rate Location/Type
01:24AM 40.1660 116.5080 325° Northwest 4,500  Level FlightAware
01:24AM 40.1770 116.4990 328° Northwest 4,700 1,200 Climbing FlightAware
01:24AM 40.2050 116.4750 327° Northwest 5,600 1,800 Climbing FlightAware
01:25AM 40.2310 116.4520 326° Northwest 6,800 2,880 Climbing FlightAware
01:25AM 40.2610 116.4260 327° Northwest 8,400 3,180 Climbing FlightAware
01:26AM 40.2880 116.3870 312° West 10,000 3,180 Climbing FlightAware
01:26AM 40.2900 116.3620 276° West 10,700 2,760 Climbing FlightAware
01:26AM 40.2880 116.2970 268° West 11,600 1,500 Climbing FlightAware
01:27AM 40.2750 116.2070 259° West 14,300 3,240 Climbing FlightAware
01:28AM 40.2550 116.1370 249° West 16,100 2,700 Climbing FlightAware
01:29AM 40.2360 116.0690 250° West 17,400 2,220 Climbing FlightAware
01:31AM 40.1088 115.9764 209° Southwest  Level Estimated
01:32AM 40.0442 115.9294 209° Southwest  Level Estimated
01:33AM 39.9795 115.8826 209° Southwest  Level Estimated
01:33AM 39.8930 115.6090 209° Southwest 24,200  Level FlightAware
01:34AM 39.9147 115.8358 209° Southwest  Level Estimated
01:36AM 39.7529 115.5144 207° Southwest  Level Estimated
01:37AM 39.6871 115.4702 207° Southwest  Level Estimated
01:38AM 39.6214 115.4261 207° Southwest  Level Estimated
01:39AM 39.5557 115.3821 207° Southwest  Level Estimated
01:40AM 39.4899 115.3382 207° Southwest  Level Estimated
01:41AM 39.4241 115.2943 207° Southwest  Level Estimated
01:42AM 39.3583 115.2505 207° Southwest  Level Estimated
01:43AM 39.2925 115.2068 207° Southwest  Level Estimated
01:44AM 39.2267 115.1632 207° Southwest  Level Estimated
01:45AM 39.1608 115.1197 207° Southwest  Level Estimated
01:46AM 39.0949 115.0762 207° Southwest  Level Estimated
01:47AM 39.0291 115.0329 207° Southwest  Level Estimated
01:48AM 38.9632 114.9896 207° Southwest  Level Estimated
01:49AM 38.8973 114.9464 207° Southwest  Level Estimated
01:50AM 38.8313 114.9032 207° Southwest  Level Estimated
01:51AM 38.7654 114.8602 207° Southwest  Level Estimated
01:52AM 38.6994 114.8172 207° Southwest  Level Estimated
01:53AM 38.6334 114.7743 207° Southwest  Level Estimated
01:54AM 38.5674 114.7315 207° Southwest  Level Estimated
01:55AM 38.5014 114.6888 207° Southwest  Level Estimated
01:56AM 38.4354 114.6461 207° Southwest  Level Estimated
01:57AM 38.3694 114.6035 207° Southwest  Level Estimated
01:58AM 38.3033 114.5610 207° Southwest  Level Estimated
01:59AM 38.2373 114.5186 207° Southwest  Level Estimated
02:00AM 38.1712 114.4763 207° Southwest  Level Estimated
02:01AM 38.1051 114.4340 207° Southwest  Level Estimated
02:02AM 38.0390 114.3918 207° Southwest  Level Estimated
02:03AM 37.9728 114.3497 207° Southwest  Level Estimated
02:04AM 37.9067 114.3077 207° Southwest  Level Estimated
02:05AM 37.8405 114.2657 207° Southwest  Level Estimated
02:06AM 37.7743 114.2238 207° Southwest  Level Estimated